Time;durP1;ratioP1;P1;durP2;ratioP2;P2;SDS_P1;SDS_P2;PMS_P1;PMS_P2;Temp;Humidity;BMP_temperature;BMP_pressure;BME280_temperature;BME280_humidity;BME280_pressure;Samples;Min_cycle;Max_cycle;Signal;HPM_P1;HPM_P2
2022/03/23 00:02:08;;;;;;;17.10;7.07;;;;;;;2.91;nan;-23897.28;5094006;28;20320;-69
2022/03/23 00:04:34;;;;;;;16.40;8.10;;;;;;;3.14;nan;-23903.84;5094120;28;20162;-69
2022/03/23 00:06:59;;;;;;;18.93;7.17;;;;;;;2.51;nan;-23886.16;5094005;28;20175;-69
2022/03/23 00:09:26;;;;;;;14.03;7.03;;;;;;;2.37;nan;-23882.16;5093621;28;20309;-69
2022/03/23 00:11:52;;;;;;;21.17;7.23;;;;;;;2.86;nan;-23895.88;5093636;28;20182;-69
2022/03/23 00:14:18;;;;;;;16.13;7.83;;;;;;;2.72;nan;-23891.88;5093436;28;20671;-69
2022/03/23 00:16:44;;;;;;;19.40;8.07;;;;;;;2.80;nan;-23894.16;5093730;28;20559;-70
2022/03/23 00:19:09;;;;;;;16.03;7.53;;;;;;;2.26;nan;-23879.03;5093982;28;20186;-69
2022/03/23 00:21:36;;;;;;;14.83;7.70;;;;;;;2.49;nan;-23885.59;5093387;28;20702;-69
2022/03/23 00:24:01;;;;;;;14.67;8.47;;;;;;;2.42;nan;-23883.59;5092168;28;20589;-69
2022/03/23 00:26:27;;;;;;;17.50;9.07;;;;;;;2.37;nan;-23882.16;5093098;28;20182;-69
2022/03/23 00:28:52;;;;;;;17.07;8.97;;;;;;;2.64;nan;-23889.72;5093191;28;20223;-69
2022/03/23 00:31:20;;;;;;;17.77;9.70;;;;;;;2.65;nan;-23890.16;5093314;28;20174;-69
2022/03/23 00:33:47;;;;;;;16.20;8.83;;;;;;;2.79;nan;-23894.00;5093200;28;20197;-69
2022/03/23 00:36:24;;;;;;;19.00;8.67;;;;;;;2.96;nan;-23898.72;5093272;28;20170;-69
2022/03/23 00:38:53;;;;;;;18.93;9.03;;;;;;;2.42;nan;-23883.59;5092776;28;20186;-69
2022/03/23 00:41:20;;;;;;;24.60;10.33;;;;;;;2.71;nan;-23891.72;5092963;28;20645;-69
2022/03/23 00:43:45;;;;;;;20.10;9.83;;;;;;;2.72;nan;-23891.88;5093117;28;20174;-69
2022/03/23 00:46:11;;;;;;;33.07;10.07;;;;;;;2.22;nan;-23878.03;5093331;28;20230;-69
2022/03/23 00:48:36;;;;;;;22.70;9.57;;;;;;;2.34;nan;-23881.31;5092898;28;20221;-69
2022/03/23 00:51:02;;;;;;;22.60;8.50;;;;;;;2.32;nan;-23880.59;5092695;28;20172;-69
2022/03/23 00:53:28;;;;;;;20.53;8.83;;;;;;;1.89;nan;-23868.59;5092871;28;20729;-70
2022/03/23 00:55:54;;;;;;;16.53;8.73;;;;;;;2.36;nan;-23881.88;5092682;28;20253;-70
2022/03/23 00:58:44;;;;;;;24.10;8.87;;;;;;;2.05;nan;-23873.03;5092889;28;20684;-69
2022/03/23 01:01:20;;;;;;;19.03;9.67;;;;;;;1.92;nan;-23869.31;5074732;28;20556;-69
2022/03/23 01:11:10;;;;;;;30.30;12.43;;;;;;;2.45;nan;-23884.31;5062988;28;20244;-67
2022/03/23 01:13:51;;;;;;;33.10;13.10;;;;;;;2.44;nan;-23884.03;5071902;28;20587;-68
2022/03/23 01:16:17;;;;;;;28.90;12.67;;;;;;;1.80;nan;-23866.03;5072244;28;20221;-68
2022/03/23 01:18:43;;;;;;;28.63;12.27;;;;;;;2.27;nan;-23879.31;5071819;28;20185;-69
2022/03/23 01:21:08;;;;;;;33.40;13.23;;;;;;;1.87;nan;-23867.88;5071886;28;20177;-68
2022/03/23 01:23:34;;;;;;;32.77;14.80;;;;;;;2.04;nan;-23872.88;5072339;28;20213;-68
2022/03/23 01:25:59;;;;;;;31.77;13.43;;;;;;;1.47;nan;-23856.59;5072123;28;20630;-68
2022/03/23 01:28:25;;;;;;;32.30;14.03;;;;;;;1.97;nan;-23870.75;5072027;28;20285;-69
2022/03/23 01:30:50;;;;;;;29.40;13.73;;;;;;;1.50;nan;-23857.47;5072322;28;20189;-68
2022/03/23 01:33:16;;;;;;;36.37;14.03;;;;;;;1.99;nan;-23871.47;5071601;28;20261;-68
2022/03/23 01:35:41;;;;;;;29.13;13.37;;;;;;;1.89;nan;-23868.59;5071730;28;20889;-68
2022/03/23 01:38:06;;;;;;;33.40;14.07;;;;;;;2.06;nan;-23873.47;5071670;28;20210;-68
2022/03/23 01:40:32;;;;;;;32.07;14.50;;;;;;;1.35;nan;-23853.31;5072080;28;20680;-69
2022/03/23 01:42:57;;;;;;;27.87;13.63;;;;;;;1.58;nan;-23859.88;5071707;28;20547;-68
2022/03/23 01:45:22;;;;;;;35.07;13.40;;;;;;;1.67;nan;-23862.31;5071388;28;20174;-68
2022/03/23 01:47:48;;;;;;;26.30;12.83;;;;;;;1.71;nan;-23863.59;5071383;28;20273;-68
2022/03/23 01:50:13;;;;;;;27.73;13.23;;;;;;;1.49;nan;-23857.31;5071873;28;20200;-69
2022/03/23 01:52:40;;;;;;;28.63;13.73;;;;;;;1.64;nan;-23861.47;5072121;28;20178;-68
2022/03/23 01:55:13;;;;;;;26.80;13.87;;;;;;;1.89;nan;-23868.47;5071487;28;20706;-68
2022/03/23 01:57:42;;;;;;;24.20;12.70;;;;;;;1.43;nan;-23855.59;5071810;28;20213;-69
2022/03/23 02:00:08;;;;;;;26.40;12.97;;;;;;;1.74;nan;-23864.31;5056301;28;20687;-69
2022/03/23 02:02:34;;;;;;;26.13;13.37;;;;;;;1.34;nan;-23853.03;5032034;28;20762;-68
2022/03/23 02:05:01;;;;;;;28.50;13.27;;;;;;;1.49;nan;-23857.31;5111742;28;20185;-67
2022/03/23 02:07:26;;;;;;;26.83;13.47;;;;;;;1.45;nan;-23856.16;5112379;28;20175;-68
2022/03/23 02:09:52;;;;;;;33.70;14.20;;;;;;;1.50;nan;-23857.59;5111799;28;20176;-69
2022/03/23 02:12:17;;;;;;;29.70;13.80;;;;;;;1.58;nan;-23859.88;5111943;28;20541;-69
2022/03/23 02:14:42;;;;;;;25.83;13.00;;;;;;;1.33;nan;-23852.88;5112183;28;20218;-69
2022/03/23 02:17:08;;;;;;;28.90;14.47;;;;;;;1.61;nan;-23860.75;5111546;28;20179;-68
2022/03/23 02:19:41;;;;;;;27.10;13.40;;;;;;;1.19;nan;-23848.75;5112011;28;20230;-69
2022/03/23 02:22:06;;;;;;;26.47;13.40;;;;;;;1.00;nan;-23843.44;5112314;28;20623;-69
2022/03/23 02:24:33;;;;;;;24.07;12.47;;;;;;;1.30;nan;-23851.88;5105569;28;20167;-69
2022/03/23 02:27:00;;;;;;;23.60;12.43;;;;;;;1.12;nan;-23846.72;5081210;28;20172;-68
2022/03/23 02:29:34;;;;;;;22.77;11.50;;;;;;;0.77;nan;-23836.88;5073059;28;20181;-68
2022/03/23 02:32:01;;;;;;;26.17;12.00;;;;;;;0.81;nan;-23838.16;5091281;28;20159;-69
2022/03/23 02:34:27;;;;;;;23.93;12.20;;;;;;;1.11;nan;-23846.44;5073724;28;20680;-69
2022/03/23 02:36:53;;;;;;;21.03;11.23;;;;;;;1.11;nan;-23846.59;5071440;28;20179;-68
2022/03/23 02:39:19;;;;;;;21.00;10.10;;;;;;;1.15;nan;-23847.59;5070680;28;20182;-69
2022/03/23 02:41:45;;;;;;;24.67;11.73;;;;;;;1.20;nan;-23849.16;5052782;28;20176;-69
2022/03/23 02:44:17;;;;;;;19.63;9.83;;;;;;;1.11;nan;-23846.44;5070692;28;20635;-69
2022/03/23 02:46:43;;;;;;;17.10;9.07;;;;;;;0.84;nan;-23838.88;5054589;28;20256;-69
2022/03/23 02:49:09;;;;;;;19.57;9.10;;;;;;;0.64;nan;-23833.16;5074473;28;20186;-69
2022/03/23 02:51:36;;;;;;;19.23;9.43;;;;;;;1.09;nan;-23846.03;5074516;28;20219;-68
2022/03/23 03:02:53;;;;;;;21.47;8.73;;;;;;;0.88;nan;-23840.00;5074434;28;20170;-68
2022/03/23 03:05:19;;;;;;;21.47;9.03;;;;;;;1.28;nan;-23851.44;5074738;28;20546;-69
2022/03/23 03:10:30;;;;;;;16.63;8.70;;;;;;;1.04;nan;-23844.44;5074853;28;20236;-68
2022/03/23 03:12:56;;;;;;;16.10;8.70;;;;;;;1.52;nan;-23858.16;5074342;28;20280;-70
2022/03/23 03:15:22;;;;;;;18.27;8.57;;;;;;;1.47;nan;-23856.59;5074302;28;20288;-69
2022/03/23 03:17:48;;;;;;;21.27;8.83;;;;;;;1.38;nan;-23854.16;5074286;28;20177;-69
2022/03/23 03:20:14;;;;;;;20.67;9.17;;;;;;;1.40;nan;-23854.75;5074777;28;20181;-69
2022/03/23 03:22:40;;;;;;;15.23;7.43;;;;;;;1.09;nan;-23845.88;5074683;28;20185;-69
2022/03/23 03:25:13;;;;;;;18.97;7.53;;;;;;;1.25;nan;-23850.59;5074922;28;20179;-68
2022/03/23 03:27:40;;;;;;;13.73;7.03;;;;;;;1.89;nan;-23868.47;5074388;28;20257;-68
2022/03/23 03:30:09;;;;;;;11.17;7.13;;;;;;;1.79;nan;-23865.75;5074332;28;20615;-68
2022/03/23 03:32:35;;;;;;;14.20;7.47;;;;;;;1.45;nan;-23856.03;5074516;28;20162;-68
2022/03/23 03:35:04;;;;;;;18.37;7.20;;;;;;;1.77;nan;-23865.31;5074002;28;20205;-69
2022/03/23 03:37:29;;;;;;;16.43;7.07;;;;;;;1.74;nan;-23864.47;5073857;28;20177;-69
2022/03/23 03:39:55;;;;;;;16.00;7.57;;;;;;;1.70;nan;-23863.16;5074110;28;20185;-69
2022/03/23 03:42:20;;;;;;;14.73;7.67;;;;;;;1.63;nan;-23861.31;5073796;28;20166;-69
2022/03/23 03:44:50;;;;;;;16.77;7.40;;;;;;;1.55;nan;-23859.03;5073951;28;20192;-69
2022/03/23 03:47:16;;;;;;;17.00;7.20;;;;;;;1.50;nan;-23857.47;5074212;28;20258;-69
2022/03/23 03:49:42;;;;;;;11.87;6.77;;;;;;;1.14;nan;-23847.31;5074135;28;20178;-69
2022/03/23 03:52:07;;;;;;;14.37;7.00;;;;;;;1.56;nan;-23859.31;5073865;28;20261;-68
2022/03/23 03:54:33;;;;;;;15.90;7.20;;;;;;;1.77;nan;-23865.16;5073890;28;20192;-68
2022/03/23 03:56:58;;;;;;;12.43;7.13;;;;;;;1.51;nan;-23857.75;5073242;28;20555;-70
2022/03/23 03:59:24;;;;;;;16.73;7.27;;;;;;;1.59;nan;-23860.03;5073719;28;20162;-68
2022/03/23 04:01:49;;;;;;;12.93;7.00;;;;;;;1.70;nan;-23863.16;5073874;28;20162;-68
2022/03/23 04:04:15;;;;;;;16.27;7.20;;;;;;;1.08;nan;-23845.72;5073622;28;20174;-69
2022/03/23 04:06:41;;;;;;;16.50;7.10;;;;;;;1.56;nan;-23859.31;5073132;28;20174;-68
2022/03/23 04:09:06;;;;;;;15.23;7.53;;;;;;;1.46;nan;-23856.47;5055393;28;20696;-68
2022/03/23 04:11:32;;;;;;;18.63;7.53;;;;;;;1.45;nan;-23856.03;5073851;28;20312;-69
2022/03/23 04:13:57;;;;;;;18.93;7.90;;;;;;;0.15;nan;-23819.41;5073164;28;20205;-69
2022/03/23 04:16:23;;;;;;;18.60;8.00;;;;;;;1.52;nan;-23858.16;5073289;28;20173;-68
2022/03/23 04:18:48;;;;;;;14.70;8.07;;;;;;;1.14;nan;-23847.31;5073388;28;20218;-68
2022/03/23 04:21:13;;;;;;;14.90;8.00;;;;;;;1.51;nan;-23857.75;5073186;28;20745;-68
2022/03/23 04:23:40;;;;;;;17.23;8.33;;;;;;;1.00;nan;-23843.31;5081087;28;20191;-69
2022/03/23 04:26:05;;;;;;;14.63;7.83;;;;;;;1.52;nan;-23858.16;5067925;28;20459;-68
2022/03/23 04:28:31;;;;;;;18.07;8.67;;;;;;;1.12;nan;-23846.72;5085250;28;20696;-68
2022/03/23 04:30:57;;;;;;;18.13;7.87;;;;;;;1.73;nan;-23864.03;5086650;28;20684;-69
2022/03/23 04:33:22;;;;;;;19.07;8.70;;;;;;;1.30;nan;-23851.88;5086002;28;20181;-70
2022/03/23 04:35:48;;;;;;;12.77;7.83;;;;;;;1.57;nan;-23859.59;5085633;28;20184;-69
2022/03/23 04:38:13;;;;;;;17.97;10.00;;;;;;;1.39;nan;-23854.44;5084598;28;20225;-69
2022/03/23 04:40:39;;;;;;;21.80;9.60;;;;;;;1.37;nan;-23853.88;5085552;28;20180;-68
2022/03/23 04:43:05;;;;;;;23.13;10.77;;;;;;;1.36;nan;-23853.59;5085319;28;20943;-69
2022/03/23 04:45:30;;;;;;;22.23;11.20;;;;;;;0.88;nan;-23840.00;5084837;28;20212;-69
2022/03/23 04:47:55;;;;;;;20.63;9.37;;;;;;;1.38;nan;-23854.16;5085940;28;20203;-69
2022/03/23 04:50:21;;;;;;;17.60;9.00;;;;;;;1.09;nan;-23845.88;5085577;28;20190;-68
2022/03/23 04:52:47;;;;;;;21.07;9.57;;;;;;;1.06;nan;-23845.16;5085952;28;20189;-69
2022/03/23 04:55:15;;;;;;;22.17;11.20;;;;;;;1.24;nan;-23850.16;5066527;28;20239;-69
2022/03/23 04:57:41;;;;;;;23.50;10.30;;;;;;;1.52;nan;-23858.16;5085118;28;20572;-70
2022/03/23 05:00:11;;;;;;;26.77;11.07;;;;;;;1.53;nan;-23858.31;5085666;28;20226;-68
2022/03/23 05:02:38;;;;;;;21.70;10.90;;;;;;;1.97;nan;-23870.75;5085705;28;20181;-69
2022/03/23 05:05:08;;;;;;;19.23;10.90;;;;;;;1.51;nan;-23857.88;5085121;28;20189;-68
2022/03/23 05:07:34;;;;;;;22.37;11.77;;;;;;;1.90;nan;-23868.75;5083512;28;20185;-69
2022/03/23 05:09:59;;;;;;;24.80;11.37;;;;;;;2.17;nan;-23876.59;5083929;28;20608;-69
2022/03/23 05:12:25;;;;;;;19.10;10.83;;;;;;;1.86;nan;-23867.59;5084958;28;20192;-69
2022/03/23 05:14:51;;;;;;;21.50;11.80;;;;;;;2.11;nan;-23874.75;5086838;28;20698;-70
2022/03/23 05:17:16;;;;;;;22.13;12.50;;;;;;;2.39;nan;-23882.59;5092106;28;20196;-69
2022/03/23 05:19:42;;;;;;;23.73;11.43;;;;;;;2.42;nan;-23883.59;5078868;28;20580;-70
2022/03/23 05:22:08;;;;;;;24.37;10.63;;;;;;;2.61;nan;-23889.03;5086794;28;20563;-70
2022/03/23 05:24:34;;;;;;;19.13;10.13;;;;;;;2.66;nan;-23890.44;5073409;28;20193;-68
2022/03/23 05:26:59;;;;;;;17.17;10.57;;;;;;;2.83;nan;-23895.00;5073712;28;20185;-71
2022/03/23 05:29:25;;;;;;;22.10;10.53;;;;;;;3.05;nan;-23901.28;5085739;28;20214;-69
2022/03/23 05:31:51;;;;;;;20.67;10.63;;;;;;;3.00;nan;-23900.00;5071409;28;20659;-69
2022/03/23 05:34:17;;;;;;;22.60;10.07;;;;;;;3.44;nan;-23912.25;5070881;28;20200;-69
2022/03/23 05:36:42;;;;;;;17.73;10.07;;;;;;;3.34;nan;-23909.56;5071434;28;20164;-68
2022/03/23 05:39:08;;;;;;;20.77;10.53;;;;;;;3.67;nan;-23918.69;5053265;28;20251;-70
2022/03/23 05:41:33;;;;;;;19.77;9.67;;;;;;;3.96;nan;-23926.94;5071322;28;20173;-69
2022/03/23 05:43:59;;;;;;;21.77;10.77;;;;;;;3.69;nan;-23919.41;5071509;28;20176;-69
2022/03/23 05:46:25;;;;;;;20.47;9.47;;;;;;;4.04;nan;-23929.22;5071366;28;20600;-69
2022/03/23 05:48:52;;;;;;;18.90;9.97;;;;;;;4.14;nan;-23931.94;5071387;28;20672;-69
2022/03/23 05:51:18;;;;;;;18.30;9.70;;;;;;;4.21;nan;-23934.06;5071236;28;20174;-70
2022/03/23 05:53:43;;;;;;;19.93;10.23;;;;;;;4.61;nan;-23945.16;5070565;28;20192;-70
2022/03/23 05:56:08;;;;;;;22.27;10.30;;;;;;;4.79;nan;-23950.44;5071396;28;20209;-69
2022/03/23 05:58:34;;;;;;;15.30;9.27;;;;;;;4.69;nan;-23947.44;5081748;28;20177;-70
2022/03/23 06:01:00;;;;;;;17.87;9.07;;;;;;;4.95;nan;-23954.84;5090737;28;20605;-70
2022/03/23 06:03:26;;;;;;;18.17;8.90;;;;;;;5.30;nan;-23964.66;5086193;28;20258;-71
2022/03/23 06:05:51;;;;;;;18.50;9.33;;;;;;;5.35;nan;-23966.09;5070779;28;20641;-70
2022/03/23 06:08:17;;;;;;;16.37;9.90;;;;;;;5.45;nan;-23968.94;5081427;28;20173;-68
2022/03/23 06:10:42;;;;;;;19.83;9.13;;;;;;;5.78;nan;-23978.31;5090847;28;20537;-66
2022/03/23 06:13:08;;;;;;;20.97;8.80;;;;;;;5.52;nan;-23970.78;5088706;28;20271;-67
2022/03/23 06:15:33;;;;;;;19.43;9.90;;;;;;;5.96;nan;-23983.28;5090585;28;20193;-67
2022/03/23 06:17:58;;;;;;;17.83;9.33;;;;;;;6.05;nan;-23985.84;5075493;28;20189;-67
2022/03/23 06:20:24;;;;;;;17.07;9.00;;;;;;;6.11;nan;-23987.41;5070883;28;20173;-66
2022/03/23 06:22:49;;;;;;;18.97;9.73;;;;;;;6.01;nan;-23984.69;5094265;28;20693;-67
2022/03/23 06:25:15;;;;;;;20.60;9.87;;;;;;;6.17;nan;-23989.25;5095013;28;20172;-65
2022/03/23 06:27:40;;;;;;;20.33;9.93;;;;;;;6.30;nan;-23992.66;5076894;28;20169;-66
2022/03/23 06:30:06;;;;;;;21.03;10.13;;;;;;;6.38;nan;-23995.06;5095014;28;20183;-65
2022/03/23 06:32:33;;;;;;;22.90;10.40;;;;;;;6.66;nan;-24002.88;5095222;28;20166;-67
2022/03/23 06:35:00;;;;;;;19.90;10.00;;;;;;;6.69;nan;-24003.72;5076539;28;20205;-66
2022/03/23 06:37:26;;;;;;;20.03;9.43;;;;;;;7.25;nan;-24019.34;5094555;28;20165;-67
2022/03/23 06:39:51;;;;;;;16.27;9.67;;;;;;;6.98;nan;-24011.94;5094861;28;20244;-67
2022/03/23 06:42:17;;;;;;;20.57;10.10;;;;;;;7.08;nan;-24014.66;5076961;28;20183;-66
2022/03/23 06:44:43;;;;;;;20.00;9.93;;;;;;;7.61;nan;-24029.53;5094542;28;20170;-67
2022/03/23 06:47:08;;;;;;;20.33;9.40;;;;;;;7.61;nan;-24029.53;5093520;28;20238;-68
2022/03/23 06:49:34;;;;;;;16.00;9.40;;;;;;;7.89;nan;-24037.31;5090444;28;20605;-65
2022/03/23 06:51:59;;;;;;;16.93;9.70;;;;;;;7.94;nan;-24038.88;5079730;28;20180;-66
2022/03/23 06:54:25;;;;;;;19.40;10.20;;;;;;;8.08;nan;-24042.56;5093930;28;20304;-67
2022/03/23 06:56:51;;;;;;;18.73;8.80;;;;;;;8.13;nan;-24044.00;5082978;28;20185;-67
2022/03/23 06:59:19;;;;;;;14.23;8.17;;;;;;;7.88;nan;-24037.03;5090544;28;20280;-66
2022/03/23 07:01:45;;;;;;;18.33;8.57;;;;;;;8.55;nan;-24055.88;5082333;28;20193;-67
2022/03/23 07:04:10;;;;;;;35.93;15.30;;;;;;;8.93;nan;-24066.34;5083994;28;20181;-68
2022/03/23 07:06:36;;;;;;;17.73;9.70;;;;;;;8.77;nan;-24061.97;5085845;28;20196;-67
2022/03/23 07:11:46;;;;;;;14.47;8.23;;;;;;;8.38;nan;-24051.06;5074725;28;20797;-67
2022/03/23 07:14:11;;;;;;;16.17;6.40;;;;;;;9.09;nan;-24071.03;5074011;28;20206;-67
2022/03/23 07:16:36;;;;;;;9.60;6.40;;;;;;;9.39;nan;-24079.22;5074160;28;20583;-67
2022/03/23 07:19:02;;;;;;;15.03;7.30;;;;;;;9.03;nan;-24069.19;5073815;28;20655;-68
2022/03/23 07:21:27;;;;;;;15.70;7.00;;;;;;;9.57;nan;-24084.44;5074069;28;20174;-66
2022/03/23 07:23:53;;;;;;;14.07;7.70;;;;;;;9.31;nan;-24077.09;5073652;28;20181;-67
2022/03/23 07:26:19;;;;;;;16.87;6.87;;;;;;;9.81;nan;-24090.94;5072787;28;20558;-67
2022/03/23 07:28:45;;;;;;;15.30;6.33;;;;;;;9.88;nan;-24092.91;5074159;28;20633;-66
2022/03/23 07:31:10;;;;;;;10.90;5.77;;;;;;;9.81;nan;-24090.94;5074262;28;20158;-67
2022/03/23 07:33:36;;;;;;;10.70;5.67;;;;;;;10.10;nan;-24099.13;5073410;28;20205;-68
2022/03/23 07:36:02;;;;;;;9.07;5.60;;;;;;;10.13;nan;-24100.13;5073992;28;20180;-68
2022/03/23 07:38:28;;;;;;;10.53;4.90;;;;;;;10.23;nan;-24102.81;5074068;28;20236;-68
2022/03/23 07:40:53;;;;;;;10.10;5.37;;;;;;;10.41;nan;-24107.88;5073801;28;20645;-66
2022/03/23 07:43:18;;;;;;;8.30;4.73;;;;;;;9.74;nan;-24089.25;5073725;28;20189;-67
2022/03/23 07:45:44;;;;;;;8.80;4.97;;;;;;;10.52;nan;-24111.00;5073856;28;20181;-68
2022/03/23 07:48:09;;;;;;;10.43;4.37;;;;;;;10.56;nan;-24112.13;5073218;28;20565;-68
2022/03/23 07:50:35;;;;;;;10.10;4.80;;;;;;;10.41;nan;-24107.88;5073439;28;20174;-67
2022/03/23 07:53:00;;;;;;;10.17;4.77;;;;;;;10.83;nan;-24119.47;5073211;28;20170;-66
2022/03/23 07:55:26;;;;;;;11.87;4.60;;;;;;;10.52;nan;-24110.84;5072413;28;20631;-67
2022/03/23 07:57:51;;;;;;;11.97;5.07;;;;;;;10.64;nan;-24114.38;5072934;28;20267;-67
2022/03/23 08:00:17;;;;;;;10.10;4.60;;;;;;;11.02;nan;-24124.97;5073278;28;20178;-67
2022/03/23 08:02:42;;;;;;;7.30;4.80;;;;;;;10.85;nan;-24120.16;5072709;28;20220;-68
2022/03/23 08:05:09;;;;;;;4.93;3.53;;;;;;;10.63;nan;-24113.97;5072670;28;20178;-67
2022/03/23 08:07:35;;;;;;;7.47;4.30;;;;;;;10.94;nan;-24122.56;5073649;28;20166;-68
2022/03/23 08:10:00;;;;;;;8.40;4.30;;;;;;;10.79;nan;-24118.47;5072780;28;20606;-70
2022/03/23 08:12:26;;;;;;;13.50;5.10;;;;;;;11.25;nan;-24131.31;5080577;28;20632;-67
2022/03/23 08:14:52;;;;;;;7.83;4.70;;;;;;;11.07;nan;-24126.22;5070691;28;20240;-66
2022/03/23 08:17:17;;;;;;;6.15;3.53;;;;;;;11.50;nan;-24138.34;5062129;28;20192;-68
2022/03/23 08:19:43;;;;;;;10.40;4.15;;;;;;;11.38;nan;-24134.97;5093708;28;20165;-67
2022/03/23 08:22:09;;;;;;;8.57;4.20;;;;;;;11.30;nan;-24132.72;5081442;28;20201;-67
2022/03/23 08:24:34;;;;;;;5.85;4.00;;;;;;;11.29;nan;-24132.44;5073017;28;20167;-67
2022/03/23 08:27:00;;;;;;;5.18;3.90;;;;;;;11.39;nan;-24135.09;5073163;28;20198;-67
2022/03/23 08:29:26;;;;;;;7.73;4.27;;;;;;;11.75;nan;-24145.25;5055017;28;20621;-68
2022/03/23 08:31:52;;;;;;;5.22;3.80;;;;;;;11.57;nan;-24140.03;5072692;28;20248;-69
2022/03/23 08:34:18;;;;;;;9.18;4.28;;;;;;;11.59;nan;-24140.59;5072561;28;20219;-67
2022/03/23 08:36:44;;;;;;;6.75;3.70;;;;;;;11.59;nan;-24140.59;5072542;28;20624;-67
2022/03/23 08:39:10;;;;;;;7.65;4.22;;;;;;;11.72;nan;-24144.41;5072465;28;20200;-67
2022/03/23 08:41:36;;;;;;;9.63;4.10;;;;;;;11.84;nan;-24147.78;5071992;28;20288;-67
2022/03/23 08:44:02;;;;;;;9.85;4.30;;;;;;;11.72;nan;-24144.41;5071441;28;20178;-67
2022/03/23 08:46:27;;;;;;;7.18;3.95;;;;;;;12.18;nan;-24157.22;5072258;28;20181;-66
2022/03/23 08:48:53;;;;;;;8.68;3.95;;;;;;;12.24;nan;-24158.78;5072256;28;20174;-68
2022/03/23 08:51:19;;;;;;;9.90;3.85;;;;;;;12.46;nan;-24164.97;5054536;28;20169;-66
2022/03/23 08:53:45;;;;;;;9.50;3.60;;;;;;;12.26;nan;-24159.34;5071840;28;20221;-68
2022/03/23 08:56:11;;;;;;;7.55;4.20;;;;;;;12.42;nan;-24163.69;5073188;28;20273;-66
2022/03/23 08:58:47;;;;;;;6.40;3.75;;;;;;;12.20;nan;-24157.78;5089156;28;20200;-66
2022/03/23 09:01:14;;;;;;;7.20;4.32;;;;;;;12.59;nan;-24168.47;5090419;28;20219;-68
2022/03/23 09:03:40;;;;;;;8.48;4.22;;;;;;;12.17;nan;-24156.78;5089007;28;20185;-69
2022/03/23 09:06:05;;;;;;;7.78;4.55;;;;;;;12.84;nan;-24175.50;5071844;28;20178;-66
2022/03/23 09:08:32;;;;;;;5.90;3.70;;;;;;;12.62;nan;-24169.31;5080704;28;20180;-71
2022/03/23 09:10:59;;;;;;;9.98;4.07;;;;;;;12.61;nan;-24169.19;5092399;28;20224;-66
2022/03/23 09:13:24;;;;;;;6.88;4.07;;;;;;;11.86;nan;-24148.22;5092013;28;20169;-70
2022/03/23 09:15:50;;;;;;;9.63;4.05;;;;;;;11.82;nan;-24147.22;5074218;28;20268;-68
2022/03/23 09:18:15;;;;;;;9.18;4.32;;;;;;;12.48;nan;-24165.53;5092631;28;20207;-68
2022/03/23 09:20:41;;;;;;;5.68;3.97;;;;;;;11.82;nan;-24147.22;5092718;28;20158;-68
2022/03/23 09:23:08;;;;;;;7.10;3.45;;;;;;;12.57;nan;-24167.91;5074041;28;20660;-67
2022/03/23 09:25:33;;;;;;;5.68;3.45;;;;;;;12.39;nan;-24163.00;5092448;28;20182;-68
2022/03/23 09:27:59;;;;;;;5.82;3.75;;;;;;;12.20;nan;-24157.78;5073900;28;20259;-68
2022/03/23 09:30:24;;;;;;;8.98;3.60;;;;;;;10.85;nan;-24120.03;5091495;28;20169;-67
2022/03/23 09:32:50;;;;;;;11.88;3.85;;;;;;;11.69;nan;-24143.41;5092389;28;20161;-67
2022/03/23 09:35:16;;;;;;;6.32;3.88;;;;;;;12.07;nan;-24154.00;5092272;28;20323;-68
2022/03/23 09:37:48;;;;;;;7.93;3.40;;;;;;;11.52;nan;-24138.78;5092235;28;20176;-68
2022/03/23 09:40:28;;;;;;;7.53;3.88;;;;;;;11.84;nan;-24147.66;5092462;28;20197;-68
2022/03/23 09:42:58;;;;;;;9.05;3.80;;;;;;;11.88;nan;-24148.78;5073517;28;20208;-69
2022/03/23 09:48:09;;;;;;;6.78;3.67;;;;;;;12.49;nan;-24165.66;5091778;28;20366;-67
2022/03/23 09:50:36;;;;;;;6.32;3.38;;;;;;;12.83;nan;-24175.22;5091910;28;20188;-67
2022/03/23 09:53:03;;;;;;;6.20;3.35;;;;;;;12.80;nan;-24174.38;5091675;28;20197;-67
2022/03/23 09:55:29;;;;;;;8.43;3.60;;;;;;;12.29;nan;-24160.19;5091245;28;20326;-67
2022/03/23 09:57:56;;;;;;;5.10;3.10;;;;;;;12.52;nan;-24166.66;5091665;28;20260;-65
2022/03/23 10:00:22;;;;;;;13.40;4.00;;;;;;;12.19;nan;-24157.38;5091670;28;20273;-66
2022/03/23 10:02:57;;;;;;;5.18;3.58;;;;;;;12.07;nan;-24154.00;5091215;28;20574;-66
2022/03/23 10:05:51;;;;;;;8.75;4.20;;;;;;;12.25;nan;-24159.19;5091442;28;20177;-68
2022/03/23 10:08:38;;;;;;;6.80;4.03;;;;;;;12.39;nan;-24163.00;5052276;28;20205;-66
2022/03/23 10:11:41;;;;;;;6.18;3.72;;;;;;;12.37;nan;-24162.44;5090808;28;20596;-67
2022/03/23 10:14:37;;;;;;;6.20;3.67;;;;;;;12.29;nan;-24160.19;5089590;28;20208;-67
2022/03/23 10:17:33;;;;;;;7.72;3.97;;;;;;;12.52;nan;-24166.50;5076107;28;20173;-67
2022/03/23 10:20:00;;;;;;;10.95;4.28;;;;;;;12.68;nan;-24171.00;5072858;28;20181;-66
2022/03/23 10:22:28;;;;;;;12.48;4.20;;;;;;;13.28;nan;-24187.88;5077004;28;20201;-67
2022/03/23 10:24:54;;;;;;;7.47;3.90;;;;;;;12.89;nan;-24176.91;5059474;28;20175;-66
2022/03/23 10:27:25;;;;;;;4.63;3.70;;;;;;;12.89;nan;-24176.91;5090574;28;20207;-67
2022/03/23 10:29:52;;;;;;;6.13;3.67;;;;;;;12.43;nan;-24164.13;5090532;28;20205;-68
2022/03/23 10:32:21;;;;;;;7.47;4.13;;;;;;;12.90;nan;-24177.19;5090499;28;20176;-67
2022/03/23 10:34:51;;;;;;;9.18;3.95;;;;;;;12.67;nan;-24170.72;5089931;28;20197;-67
2022/03/23 10:37:28;;;;;;;6.68;3.78;;;;;;;12.61;nan;-24169.03;5089990;28;20546;-67
2022/03/23 10:39:56;;;;;;;8.73;3.70;;;;;;;12.27;nan;-24159.63;5090206;28;20582;-68
2022/03/23 10:42:24;;;;;;;5.65;3.58;;;;;;;12.44;nan;-24164.41;5090496;28;20165;-67
2022/03/23 10:45:06;;;;;;;7.88;3.58;;;;;;;12.20;nan;-24157.66;5090541;28;20178;-67
2022/03/23 10:47:32;;;;;;;5.43;3.30;;;;;;;12.80;nan;-24174.53;5090596;28;20666;-66
2022/03/23 10:50:09;;;;;;;6.10;3.33;;;;;;;13.10;nan;-24182.69;5090536;28;20169;-68
2022/03/23 10:52:35;;;;;;;6.60;3.30;;;;;;;12.85;nan;-24175.94;5072034;28;20251;-67
2022/03/23 10:55:05;;;;;;;7.55;3.53;;;;;;;13.18;nan;-24184.94;5089735;28;20185;-67
2022/03/23 10:57:49;;;;;;;5.45;3.35;;;;;;;13.57;nan;-24195.88;5088487;28;20177;-67
2022/03/23 11:00:19;;;;;;;8.07;3.50;;;;;;;13.68;nan;-24198.84;5090558;28;20169;-68
2022/03/23 11:02:48;;;;;;;6.90;3.25;;;;;;;14.02;nan;-24208.38;5089483;28;20189;-66
2022/03/23 11:05:32;;;;;;;9.27;3.40;;;;;;;14.26;nan;-24214.84;5089913;28;20266;-65
2022/03/23 11:08:09;;;;;;;6.05;3.22;;;;;;;14.01;nan;-24207.97;5076293;28;20181;-68
2022/03/23 11:16:27;;;;;;;6.93;3.50;;;;;;;13.34;nan;-24189.28;5087411;28;20184;-68
2022/03/23 11:18:57;;;;;;;5.53;3.45;;;;;;;13.11;nan;-24183.09;5088972;28;20189;-66
2022/03/23 11:21:22;;;;;;;5.07;3.00;;;;;;;13.54;nan;-24195.03;5093562;28;20506;-67
2022/03/23 11:23:48;;;;;;;4.78;3.17;;;;;;;13.17;nan;-24184.78;5086319;28;20257;-67
2022/03/23 11:26:13;;;;;;;5.45;3.58;;;;;;;13.00;nan;-24180.00;5080538;28;20178;-67
2022/03/23 11:28:42;;;;;;;8.98;3.70;;;;;;;13.33;nan;-24189.16;5088907;28;20181;-67
2022/03/23 11:31:09;;;;;;;6.05;3.22;;;;;;;13.08;nan;-24182.13;5092604;28;20640;-67
2022/03/23 11:33:36;;;;;;;7.03;3.08;;;;;;;13.62;nan;-24197.16;5093884;28;20268;-68
2022/03/23 11:36:04;;;;;;;11.63;5.10;;;;;;;13.66;nan;-24198.28;5083323;28;20186;-67
2022/03/23 11:38:33;;;;;;;8.85;5.10;;;;;;;13.98;nan;-24207.25;5073373;28;20173;-67
2022/03/23 11:40:59;;;;;;;8.93;4.85;;;;;;;13.38;nan;-24190.41;5088651;28;20216;-67
2022/03/23 11:43:27;;;;;;;4.90;3.58;;;;;;;14.24;nan;-24214.41;5087920;28;20289;-68
2022/03/23 11:45:54;;;;;;;5.88;3.50;;;;;;;14.44;nan;-24220.03;5077778;28;20223;-69
2022/03/23 11:48:37;;;;;;;5.82;3.30;;;;;;;14.35;nan;-24217.34;5093203;28;20177;-69
2022/03/23 12:07:06;;;;;;;4.65;3.72;;;;;;;14.99;30.56;-24235.31;5059958;28;20292;-66
2022/03/23 12:09:44;;;;;;;5.65;3.38;;;;;;;14.68;31.07;-24226.63;5050830;28;20188;-68
2022/03/23 12:12:10;;;;;;;7.40;3.60;;;;;;;14.69;31.60;-24226.91;5050621;28;20178;-68
2022/03/23 12:14:37;;;;;;;9.38;4.40;;;;;;;14.56;30.56;-24223.41;5052033;28;20352;-69
2022/03/23 12:17:08;;;;;;;9.57;4.00;;;;;;;14.67;30.05;-24226.34;5049978;28;20717;-68
2022/03/23 12:19:54;;;;;;;7.55;3.55;;;;;;;14.27;31.37;-24215.13;5031637;28;20185;-67
2022/03/23 12:22:34;;;;;;;6.22;3.40;;;;;;;14.25;31.34;-24214.69;5050425;28;20194;-67
2022/03/23 12:25:24;;;;;;;6.80;3.55;;;;;;;14.20;30.20;-24213.16;5049721;28;20257;-68
2022/03/23 12:28:02;;;;;;;8.73;3.63;;;;;;;13.97;30.56;-24206.97;5050764;28;20197;-68